createdAt,value
2019-06-20T00:00:09.853Z,20.16
2019-06-20T00:02:39.042Z,20.13
2019-06-20T00:05:08.842Z,20.06
2019-06-20T00:07:37.951Z,20.01
2019-06-20T00:10:07.147Z,19.98
2019-06-20T00:12:36.253Z,19.93
2019-06-20T00:15:05.435Z,19.89
2019-06-20T00:17:34.549Z,19.83
2019-06-20T00:20:03.671Z,19.80
2019-06-20T00:22:32.813Z,19.75
2019-06-20T00:25:02.977Z,19.73
2019-06-20T00:27:32.191Z,19.70
2019-06-20T00:30:01.335Z,19.67
2019-06-20T00:32:30.450Z,19.70
2019-06-20T00:34:59.746Z,19.69
2019-06-20T00:37:28.909Z,19.66
2019-06-20T00:39:58.145Z,19.64
2019-06-20T00:42:27.317Z,19.61
2019-06-20T00:44:56.426Z,19.56
2019-06-20T00:47:25.517Z,19.49
2019-06-20T00:49:54.605Z,19.47
2019-06-20T00:52:23.703Z,19.44
2019-06-20T00:54:52.807Z,19.43
2019-06-20T00:57:28.815Z,19.41
2019-06-20T00:59:57.990Z,19.38
2019-06-20T01:02:27.061Z,19.35
2019-06-20T01:04:56.146Z,19.25
2019-06-20T01:07:25.377Z,19.22
2019-06-20T01:09:54.488Z,19.18
2019-06-20T01:12:23.575Z,19.16
2019-06-20T01:14:52.673Z,19.16
2019-06-20T01:17:21.879Z,19.18
2019-06-20T01:19:50.985Z,19.24
2019-06-20T01:22:20.087Z,19.21
2019-06-20T01:24:49.194Z,19.17
2019-06-20T01:27:18.304Z,19.11
2019-06-20T01:29:47.400Z,19.08
2019-06-20T01:32:16.499Z,19.09
2019-06-20T01:34:45.637Z,19.10
2019-06-20T01:37:14.784Z,19.11
2019-06-20T01:39:43.876Z,19.15
2019-06-20T01:42:12.957Z,19.13
2019-06-20T01:44:42.066Z,19.10
2019-06-20T01:47:11.160Z,19.08
2019-06-20T01:49:40.266Z,19.07
2019-06-20T01:52:09.380Z,19.07
2019-06-20T01:54:38.472Z,19.09
2019-06-20T01:57:07.608Z,19.10
2019-06-20T01:59:36.688Z,19.11
2019-06-20T02:02:05.942Z,19.09
2019-06-20T02:04:35.024Z,19.08
2019-06-20T02:07:04.244Z,18.45
2019-06-20T02:09:36.181Z,19.05
2019-06-20T02:12:05.387Z,19.06
2019-06-20T02:14:34.488Z,19.04
2019-06-20T02:17:03.618Z,19.02
2019-06-20T02:19:34.367Z,19.01
2019-06-20T02:22:03.446Z,19.02
2019-06-20T02:24:32.572Z,19.00
2019-06-20T02:27:01.782Z,19.02
2019-06-20T02:29:30.887Z,18.99
2019-06-20T02:31:59.965Z,18.98
2019-06-20T02:34:29.124Z,18.91
2019-06-20T02:36:58.189Z,18.85
2019-06-20T02:39:27.300Z,18.80
2019-06-20T02:41:56.378Z,18.75
2019-06-20T02:44:30.445Z,18.64
2019-06-20T02:46:56.294Z,18.60
2019-06-20T02:49:25.495Z,18.57
2019-06-20T02:51:55.039Z,18.56
2019-06-20T02:54:24.146Z,18.60
2019-06-20T02:56:53.250Z,18.62
2019-06-20T02:59:22.342Z,18.59
2019-06-20T03:01:51.486Z,18.55
2019-06-20T03:04:20.574Z,18.55
2019-06-20T03:06:49.809Z,18.60
2019-06-20T03:09:18.891Z,18.18
2019-06-20T03:11:48.006Z,18.61
2019-06-20T03:14:17.111Z,18.63
2019-06-20T03:16:46.238Z,18.62
2019-06-20T03:19:15.340Z,18.60
2019-06-20T03:21:44.441Z,18.57
2019-06-20T03:24:13.548Z,18.56
2019-06-20T03:26:42.644Z,18.55
2019-06-20T03:29:11.738Z,18.48
2019-06-20T03:31:40.830Z,18.45
2019-06-20T03:34:09.938Z,18.43
2019-06-20T03:36:39.021Z,18.42
2019-06-20T03:39:08.205Z,18.43
2019-06-20T03:41:37.312Z,18.45
2019-06-20T03:44:06.413Z,18.45
2019-06-20T03:46:35.527Z,18.47
2019-06-20T03:49:04.657Z,18.46
2019-06-20T03:51:33.857Z,18.41
2019-06-20T03:54:02.989Z,18.38
2019-06-20T03:56:32.217Z,18.34
2019-06-20T03:59:01.301Z,18.25
2019-06-20T04:01:30.397Z,18.17
2019-06-20T04:03:59.502Z,18.13
2019-06-20T04:06:28.605Z,18.14
2019-06-20T04:08:57.699Z,18.15
2019-06-20T04:11:26.797Z,18.18
2019-06-20T04:13:55.881Z,18.22
2019-06-20T04:16:25.075Z,18.25
2019-06-20T04:18:54.212Z,18.28
2019-06-20T04:21:23.365Z,18.35
2019-06-20T04:23:52.464Z,18.37
2019-06-20T04:26:21.589Z,18.41
2019-06-20T04:28:50.725Z,18.42
2019-06-20T04:31:19.823Z,18.43
2019-06-20T04:33:48.961Z,18.43
2019-06-20T04:36:18.081Z,18.47
2019-06-20T04:38:47.190Z,18.52
2019-06-20T04:41:16.394Z,18.57
2019-06-20T04:43:45.535Z,18.60
2019-06-20T04:46:21.263Z,18.65
2019-06-20T04:48:50.376Z,18.70
2019-06-20T04:51:19.492Z,18.76
2019-06-20T04:53:48.576Z,18.84
2019-06-20T04:56:17.695Z,18.92
2019-06-20T04:58:46.797Z,19.00
2019-06-20T05:01:15.899Z,19.06
2019-06-20T05:03:45.099Z,19.10
2019-06-20T05:06:14.144Z,19.17
2019-06-20T05:08:43.357Z,19.27
2019-06-20T05:11:12.468Z,19.34
2019-06-20T05:13:41.582Z,19.42
2019-06-20T05:16:10.671Z,19.46
2019-06-20T05:18:39.785Z,19.47
2019-06-20T05:21:08.907Z,19.46
2019-06-20T05:23:38.094Z,19.44
2019-06-20T05:26:07.305Z,19.37
2019-06-20T05:28:36.406Z,19.37
2019-06-20T05:31:05.558Z,19.47
2019-06-20T05:33:34.687Z,19.44
2019-06-20T05:36:03.782Z,19.42
2019-06-20T05:38:32.888Z,19.43
2019-06-20T05:41:02.016Z,19.44
2019-06-20T05:43:31.120Z,19.48
2019-06-20T05:46:09.527Z,19.53
2019-06-20T05:48:31.192Z,19.52
2019-06-20T05:51:00.446Z,19.55
2019-06-20T05:53:29.588Z,19.51
2019-06-20T05:55:58.698Z,19.51
2019-06-20T05:58:27.878Z,19.51
2019-06-20T06:00:57.075Z,18.33
2019-06-20T06:03:26.508Z,19.47
2019-06-20T06:05:55.620Z,19.49
2019-06-20T06:08:24.748Z,19.53
2019-06-20T06:10:53.872Z,19.60
2019-06-20T06:13:23.040Z,19.66
2019-06-20T06:15:52.311Z,19.68
2019-06-20T06:18:22.015Z,19.74
2019-06-20T06:20:51.193Z,19.80
2019-06-20T06:23:20.309Z,19.82
2019-06-20T06:25:49.463Z,19.83
2019-06-20T06:28:18.573Z,19.83
2019-06-20T06:30:47.704Z,19.84
2019-06-20T06:33:16.873Z,19.82
2019-06-20T06:35:46.010Z,19.87
2019-06-20T06:38:22.082Z,19.95
2019-06-20T06:40:46.151Z,19.98
2019-06-20T06:43:15.248Z,20.01
2019-06-20T06:45:44.371Z,20.02
2019-06-20T06:48:13.476Z,20.07
2019-06-20T06:50:42.730Z,20.14
2019-06-20T06:53:11.839Z,20.23
2019-06-20T06:55:41.002Z,20.28
2019-06-20T06:58:10.125Z,20.24
2019-06-20T07:00:45.426Z,20.27
2019-06-20T07:03:14.557Z,20.38
2019-06-20T07:05:43.793Z,20.46
2019-06-20T07:08:12.913Z,20.59
2019-06-20T07:10:42.051Z,20.72
2019-06-20T07:13:11.185Z,20.90
2019-06-20T07:15:40.309Z,20.94
2019-06-20T07:18:09.444Z,20.91
2019-06-20T07:20:38.569Z,20.97
2019-06-20T07:23:07.717Z,21.00
2019-06-20T07:25:36.835Z,20.97
2019-06-20T07:28:06.032Z,20.90
2019-06-20T07:30:35.195Z,20.82
2019-06-20T07:33:04.336Z,20.75
2019-06-20T07:35:33.477Z,20.66
2019-06-20T07:38:02.655Z,20.60
2019-06-20T07:40:31.781Z,20.59
2019-06-20T07:43:00.908Z,20.57
2019-06-20T07:45:30.019Z,20.60
2019-06-20T07:47:59.168Z,20.62
2019-06-20T07:50:28.290Z,20.60
2019-06-20T07:53:02.577Z,20.57
2019-06-20T07:55:28.507Z,20.59
2019-06-20T07:57:57.693Z,20.55
2019-06-20T08:00:27.615Z,20.52
2019-06-20T08:02:56.745Z,20.53
2019-06-20T08:05:25.902Z,20.50
2019-06-20T08:07:55.013Z,20.46
2019-06-20T08:10:25.103Z,20.41
2019-06-20T08:12:54.313Z,20.35
2019-06-20T08:15:24.837Z,20.39
2019-06-20T08:17:54.077Z,20.50
2019-06-20T08:20:24.959Z,20.74
2019-06-20T08:22:54.085Z,21.03
2019-06-20T08:25:23.257Z,21.31
2019-06-20T08:27:52.865Z,20.51
2019-06-20T08:30:29.878Z,21.90
2019-06-20T08:33:00.150Z,22.20
2019-06-20T08:35:31.408Z,22.51
2019-06-20T08:38:01.863Z,22.72
2019-06-20T08:40:36.121Z,22.84
2019-06-20T08:43:06.254Z,22.86
2019-06-20T08:45:37.846Z,23.01
2019-06-20T08:48:07.447Z,23.11
2019-06-20T08:50:36.941Z,23.12
2019-06-20T08:53:06.543Z,23.06
2019-06-20T08:55:35.871Z,22.96
2019-06-20T08:58:05.616Z,22.94
2019-06-20T09:00:36.864Z,23.01
2019-06-20T09:03:07.072Z,23.11
2019-06-20T09:05:36.418Z,23.12
2019-06-20T09:08:06.268Z,23.11
2019-06-20T09:10:39.561Z,23.13
2019-06-20T09:13:10.061Z,23.19
2019-06-20T09:15:39.581Z,23.23
2019-06-20T09:18:08.916Z,23.31
2019-06-20T09:20:38.317Z,23.42
2019-06-20T09:23:07.427Z,23.74
2019-06-20T09:25:37.113Z,23.93
2019-06-20T09:28:06.976Z,24.00
2019-06-20T09:30:37.606Z,24.16
2019-06-20T09:33:06.940Z,24.30
2019-06-20T09:35:36.228Z,24.35
2019-06-20T09:38:05.474Z,24.37
2019-06-20T09:40:34.705Z,24.27
2019-06-20T09:43:04.057Z,24.15
2019-06-20T09:45:34.571Z,23.92
2019-06-20T09:48:03.720Z,23.69
2019-06-20T09:50:32.964Z,23.49
2019-06-20T09:53:02.084Z,23.41
2019-06-20T09:55:31.265Z,23.36
2019-06-20T09:58:00.402Z,23.36
2019-06-20T10:00:30.028Z,23.40
2019-06-20T10:02:59.202Z,23.44
2019-06-20T10:05:28.502Z,23.54
2019-06-20T10:07:57.661Z,23.64
2019-06-20T10:10:30.178Z,23.75
2019-06-20T10:12:59.748Z,23.99
2019-06-20T10:15:30.538Z,24.14
2019-06-20T10:18:00.112Z,24.46
2019-06-20T10:20:29.556Z,24.77
2019-06-20T10:22:58.718Z,24.91
2019-06-20T10:25:27.840Z,24.96
2019-06-20T10:27:57.942Z,25.14
2019-06-20T10:30:28.592Z,25.15
2019-06-20T10:32:57.965Z,25.03
2019-06-20T10:35:27.150Z,24.91
2019-06-20T10:37:57.229Z,24.77
2019-06-20T10:40:27.827Z,24.65
2019-06-20T10:42:57.151Z,24.61
2019-06-20T10:45:27.048Z,24.63
2019-06-20T10:47:56.260Z,24.83
2019-06-20T10:50:25.537Z,24.97
2019-06-20T10:52:57.661Z,25.12
2019-06-20T10:55:26.900Z,25.23
2019-06-20T10:57:56.054Z,25.38
2019-06-20T11:00:31.320Z,25.33
2019-06-20T11:02:57.227Z,25.33
2019-06-20T11:05:26.480Z,25.26
2019-06-20T11:07:55.617Z,25.13
2019-06-20T11:10:25.073Z,24.91
2019-06-20T11:12:56.201Z,24.91
2019-06-20T11:15:25.381Z,24.86
2019-06-20T11:17:56.598Z,24.82
2019-06-20T11:20:26.912Z,24.96
2019-06-20T11:22:56.067Z,25.01
2019-06-20T11:25:25.224Z,25.14
2019-06-20T11:27:54.371Z,25.06
2019-06-20T11:30:24.196Z,24.98
2019-06-20T11:32:53.364Z,24.94
2019-06-20T11:35:22.509Z,24.94
2019-06-20T11:37:52.755Z,25.05
2019-06-20T11:40:22.271Z,25.22
2019-06-20T11:42:51.452Z,25.35
2019-06-20T11:45:21.394Z,25.38
2019-06-20T11:48:40.620Z,25.52
2019-06-20T11:51:10.208Z,25.52
2019-06-20T11:53:40.596Z,25.63
2019-06-20T11:56:09.695Z,26.08
2019-06-20T11:58:38.912Z,26.08
2019-06-20T12:01:08.031Z,26.38
2019-06-20T12:03:39.041Z,26.51
2019-06-20T12:06:08.034Z,26.63
2019-06-20T12:08:39.110Z,26.66
2019-06-20T12:11:07.999Z,26.73
2019-06-20T12:13:38.737Z,26.76
2019-06-20T12:16:07.945Z,26.78
2019-06-20T12:18:39.750Z,26.87
2019-06-20T12:21:07.917Z,26.96
2019-06-20T12:23:38.084Z,27.07
2019-06-20T12:26:08.353Z,27.14
2019-06-20T12:28:38.973Z,27.10
2019-06-20T12:31:18.893Z,27.06
2019-06-20T12:33:40.571Z,26.90
2019-06-20T12:36:10.111Z,26.69
2019-06-20T12:38:39.901Z,26.49
2019-06-20T12:41:10.122Z,26.33
2019-06-20T12:43:40.324Z,26.32
2019-06-20T12:46:09.473Z,26.46
2019-06-20T12:48:39.904Z,26.66
2019-06-20T12:51:09.500Z,26.86
2019-06-20T12:53:39.299Z,26.97
2019-06-20T12:56:09.456Z,26.92
2019-06-20T12:58:39.453Z,27.03
2019-06-20T13:01:09.627Z,27.00
2019-06-20T13:03:40.336Z,26.94
2019-06-20T13:06:09.682Z,26.93
2019-06-20T13:08:40.371Z,26.97
2019-06-20T13:11:09.678Z,27.04
2019-06-20T13:13:40.223Z,27.14
2019-06-20T13:16:09.626Z,27.18
2019-06-20T13:18:39.612Z,27.27
2019-06-20T13:21:09.584Z,27.26
2019-06-20T13:23:40.199Z,27.36
2019-06-20T13:26:09.550Z,27.41
2019-06-20T13:28:54.179Z,27.51
2019-06-20T13:31:09.532Z,27.55
2019-06-20T13:33:39.581Z,27.55
2019-06-20T13:36:09.752Z,27.62
2019-06-20T13:38:39.896Z,27.71
2019-06-20T13:41:09.734Z,27.70
2019-06-20T13:43:38.829Z,27.83
2019-06-20T13:46:07.914Z,27.91
2019-06-20T13:48:37.028Z,27.99
2019-06-20T13:51:06.164Z,28.05
2019-06-20T13:53:35.298Z,28.07
2019-06-20T13:56:04.441Z,28.11
2019-06-20T13:58:33.565Z,28.21
2019-06-20T14:01:02.649Z,27.76
2019-06-20T14:03:31.796Z,28.35
2019-06-20T14:06:00.899Z,28.46
2019-06-20T14:08:30.005Z,28.58
2019-06-20T14:10:59.159Z,28.52
2019-06-20T14:13:28.266Z,28.44
2019-06-20T14:15:57.554Z,28.33
2019-06-20T14:18:26.699Z,28.56
2019-06-20T14:20:55.833Z,28.64
2019-06-20T14:23:24.964Z,28.72
2019-06-20T14:25:54.086Z,28.77
2019-06-20T14:28:23.222Z,28.76
2019-06-20T14:30:52.726Z,28.70
2019-06-20T14:33:21.851Z,28.73
2019-06-20T14:35:51.234Z,28.83
2019-06-20T14:38:20.488Z,28.83
2019-06-20T14:40:49.951Z,28.73
2019-06-20T14:43:19.143Z,28.61
2019-06-20T14:45:48.692Z,28.54
2019-06-20T14:48:17.932Z,28.53
2019-06-20T14:50:47.830Z,28.53
2019-06-20T14:53:18.019Z,28.55
2019-06-20T14:55:47.688Z,28.48
2019-06-20T14:58:16.819Z,28.50
2019-06-20T15:00:46.968Z,28.41
2019-06-20T15:03:16.861Z,28.30
2019-06-20T15:05:46.587Z,28.20
2019-06-20T15:08:16.245Z,28.04
2019-06-20T15:10:46.626Z,27.96
2019-06-20T15:13:16.199Z,28.00
2019-06-20T15:15:46.612Z,28.06
2019-06-20T15:18:16.154Z,28.03
2019-06-20T15:20:46.570Z,27.89
2019-06-20T15:23:16.217Z,27.82
2019-06-20T15:25:45.837Z,27.73
2019-06-20T15:28:16.142Z,27.63
2019-06-20T15:30:47.090Z,27.58
2019-06-20T15:33:16.193Z,27.62
2019-06-20T15:35:45.301Z,27.61
2019-06-20T15:38:14.421Z,27.58
2019-06-20T15:40:43.621Z,27.58
2019-06-20T15:43:12.734Z,27.44
2019-06-20T15:45:41.827Z,27.32
2019-06-20T15:48:10.967Z,27.24
2019-06-20T15:50:40.092Z,27.17
2019-06-20T15:53:09.230Z,27.11
2019-06-20T15:55:38.369Z,27.07
2019-06-20T15:58:07.501Z,27.02
2019-06-20T16:00:36.629Z,26.94
2019-06-20T16:03:09.930Z,26.93
2019-06-20T16:05:36.594Z,26.94
2019-06-20T16:08:05.709Z,26.93
2019-06-20T16:10:34.817Z,26.94
2019-06-20T16:13:03.966Z,26.94
2019-06-20T16:15:33.075Z,26.87
2019-06-20T16:18:02.280Z,26.80
2019-06-20T16:20:31.374Z,26.74
2019-06-20T16:23:00.492Z,26.68
2019-06-20T16:25:29.619Z,26.64
2019-06-20T16:27:58.761Z,26.61
2019-06-20T16:30:27.954Z,26.55
2019-06-20T16:32:57.166Z,26.52
2019-06-20T16:35:26.267Z,26.50
2019-06-20T16:37:55.401Z,26.50
2019-06-20T16:40:50.527Z,26.49
2019-06-20T16:43:19.675Z,26.42
2019-06-20T16:45:48.775Z,26.29
2019-06-20T16:48:17.877Z,26.19
2019-06-20T16:50:47.088Z,26.14
2019-06-20T16:53:16.302Z,26.08
2019-06-20T16:55:45.433Z,26.03
2019-06-20T16:58:14.607Z,25.98
2019-06-20T17:00:43.830Z,25.92
2019-06-20T17:03:12.874Z,25.81
2019-06-20T17:05:42.040Z,25.68
2019-06-20T17:08:11.166Z,25.61
2019-06-20T17:10:40.368Z,25.56
2019-06-20T17:13:09.512Z,25.51
2019-06-20T17:15:38.611Z,25.45
2019-06-20T17:18:07.743Z,25.41
2019-06-20T17:20:36.888Z,25.31
2019-06-20T17:23:06.551Z,25.24
2019-06-20T17:25:35.669Z,25.15
2019-06-20T17:28:05.186Z,25.14
2019-06-20T17:30:34.320Z,25.08
2019-06-20T17:33:03.436Z,24.98
2019-06-20T17:35:32.618Z,24.92
2019-06-20T17:38:01.744Z,24.84
2019-06-20T17:40:31.098Z,24.75
2019-06-20T17:43:00.231Z,24.65
2019-06-20T17:45:29.618Z,24.52
2019-06-20T17:47:58.822Z,24.40
2019-06-20T17:50:27.948Z,24.33
2019-06-20T17:52:57.084Z,23.36
2019-06-20T17:55:26.215Z,24.18
2019-06-20T17:57:55.311Z,24.15
2019-06-20T18:00:24.918Z,24.11
2019-06-20T18:02:54.019Z,24.06
2019-06-20T18:05:23.274Z,24.01
2019-06-20T18:07:52.523Z,23.94
2019-06-20T18:10:22.056Z,23.89
2019-06-20T18:12:51.222Z,23.83
2019-06-20T18:15:20.458Z,23.74
2019-06-20T18:17:49.574Z,23.65
2019-06-20T18:20:18.947Z,23.59
2019-06-20T18:22:48.064Z,23.52
2019-06-20T18:25:17.312Z,23.47
2019-06-20T18:27:46.468Z,23.43
2019-06-20T18:30:15.686Z,23.38
2019-06-20T18:32:44.810Z,23.34
2019-06-20T18:35:14.203Z,23.29
2019-06-20T18:37:43.333Z,23.24
2019-06-20T18:40:12.450Z,23.19
2019-06-20T18:42:41.671Z,23.10
2019-06-20T18:45:11.282Z,23.03
2019-06-20T18:47:40.379Z,22.95
2019-06-20T18:50:09.799Z,22.85
2019-06-20T18:52:51.553Z,22.75
2019-06-20T18:55:09.867Z,22.71
2019-06-20T18:57:39.099Z,22.65
2019-06-20T19:00:08.465Z,22.59
2019-06-20T19:02:37.563Z,22.55
2019-06-20T19:05:07.273Z,22.52
2019-06-20T19:07:36.415Z,22.47
2019-06-20T19:10:05.994Z,22.43
2019-06-20T19:12:35.161Z,22.40
2019-06-20T19:15:04.703Z,22.40
2019-06-20T19:17:33.915Z,22.39
2019-06-20T19:20:03.099Z,22.39
2019-06-20T19:22:32.252Z,22.34
2019-06-20T19:25:03.931Z,22.33
2019-06-20T19:27:45.538Z,22.31
2019-06-20T19:30:03.128Z,22.27
2019-06-20T19:32:32.230Z,22.22
2019-06-20T19:35:02.795Z,22.14
2019-06-20T19:37:32.049Z,22.08
2019-06-20T19:40:01.217Z,22.02
2019-06-20T19:42:30.305Z,22.01
2019-06-20T19:44:59.449Z,21.97
2019-06-20T19:47:28.553Z,21.94
2019-06-20T19:49:57.694Z,21.95
2019-06-20T19:52:26.826Z,21.91
2019-06-20T19:54:55.962Z,21.87
2019-06-20T19:57:25.131Z,21.81
2019-06-20T19:59:54.261Z,21.77
2019-06-20T20:02:23.379Z,21.74
2019-06-20T20:04:52.654Z,21.71
2019-06-20T20:07:21.846Z,21.66
2019-06-20T20:09:51.123Z,21.60
2019-06-20T20:12:20.275Z,21.57
2019-06-20T20:14:49.436Z,21.54
2019-06-20T20:17:18.592Z,21.52
2019-06-20T20:19:47.714Z,21.48
2019-06-20T20:22:16.903Z,21.44
2019-06-20T20:24:46.074Z,21.41
2019-06-20T20:27:15.173Z,21.37
2019-06-20T20:29:44.326Z,21.29
2019-06-20T20:32:13.457Z,21.24
2019-06-20T20:34:42.575Z,21.21
2019-06-20T20:37:11.694Z,21.20
2019-06-20T20:39:40.837Z,21.16
2019-06-20T20:42:09.949Z,21.16
2019-06-20T20:44:39.088Z,21.14
2019-06-20T20:47:08.222Z,21.10
2019-06-20T20:49:37.372Z,21.08
2019-06-20T20:52:06.492Z,21.07
2019-06-20T20:54:35.649Z,21.05
2019-06-20T20:57:04.788Z,21.05
2019-06-20T20:59:34.024Z,21.04
2019-06-20T21:02:03.186Z,21.01
2019-06-20T21:04:32.297Z,21.00
2019-06-20T21:07:01.429Z,20.98
2019-06-20T21:09:30.562Z,20.97
2019-06-20T21:11:59.677Z,20.94
2019-06-20T21:14:28.792Z,20.72
2019-06-20T21:16:57.938Z,20.91
2019-06-20T21:19:27.071Z,20.86
2019-06-20T21:21:56.177Z,20.82
2019-06-20T21:24:25.305Z,20.78
2019-06-20T21:26:54.434Z,20.74
2019-06-20T21:29:23.552Z,20.68
2019-06-20T21:31:52.669Z,20.64
2019-06-20T21:34:21.948Z,20.61
2019-06-20T21:36:51.168Z,20.56
2019-06-20T21:39:20.337Z,20.52
2019-06-20T21:41:49.500Z,20.49
2019-06-20T21:44:18.614Z,20.48
2019-06-20T21:46:47.741Z,20.43
2019-06-20T21:49:16.864Z,20.41
2019-06-20T21:51:45.995Z,20.40
2019-06-20T21:54:15.096Z,20.39
2019-06-20T21:56:44.232Z,20.38
2019-06-20T21:59:13.338Z,20.36
2019-06-20T22:01:42.612Z,20.34
2019-06-20T22:04:12.264Z,20.28
2019-06-20T22:06:41.370Z,20.27
2019-06-20T22:09:10.488Z,20.23
2019-06-20T22:11:39.643Z,20.19
2019-06-20T22:14:08.785Z,20.14
2019-06-20T22:16:37.931Z,20.11
2019-06-20T22:19:07.027Z,20.07
2019-06-20T22:21:36.156Z,20.06
2019-06-20T22:24:06.576Z,20.03
2019-06-20T22:26:35.688Z,20.01
2019-06-20T22:29:04.944Z,19.97
2019-06-20T22:31:34.078Z,19.94
2019-06-20T22:34:03.273Z,19.91
2019-06-20T22:36:40.224Z,19.85
2019-06-20T22:39:03.754Z,19.81
2019-06-20T22:41:32.868Z,19.74
2019-06-20T22:44:01.970Z,18.84
2019-06-20T22:46:31.105Z,19.65
2019-06-20T22:49:00.220Z,19.61
2019-06-20T22:51:29.346Z,19.60
2019-06-20T22:53:58.467Z,19.57
2019-06-20T22:56:27.571Z,19.54
2019-06-20T22:58:56.713Z,19.52
2019-06-20T23:01:25.811Z,19.45
2019-06-20T23:03:54.938Z,19.40
2019-06-20T23:06:24.032Z,19.31
2019-06-20T23:08:53.259Z,19.25
2019-06-20T23:11:22.371Z,19.17
2019-06-20T23:13:51.489Z,19.11
2019-06-20T23:16:20.632Z,19.07
2019-06-20T23:18:49.751Z,19.03
2019-06-20T23:21:18.865Z,18.99
2019-06-20T23:23:47.977Z,18.93
2019-06-20T23:26:17.073Z,18.89
2019-06-20T23:28:48.421Z,18.83
2019-06-20T23:31:17.631Z,18.79
2019-06-20T23:33:46.730Z,18.75
2019-06-20T23:36:15.851Z,18.70
2019-06-20T23:38:44.947Z,18.62
2019-06-20T23:41:14.093Z,18.54
2019-06-20T23:43:43.214Z,18.51
2019-06-20T23:46:12.337Z,18.48
2019-06-20T23:48:41.443Z,18.46
2019-06-20T23:51:24.715Z,18.40
2019-06-20T23:53:41.515Z,18.34
2019-06-20T23:56:10.636Z,18.30
2019-06-20T23:58:39.720Z,18.25
